Time;durP1;ratioP1;P1;durP2;ratioP2;P2;SDS_P1;SDS_P2;PMS_P1;PMS_P2;Temp;Humidity;BMP_temperature;BMP_pressure;BME280_temperature;BME280_humidity;BME280_pressure;Samples;Min_cycle;Max_cycle;Signal;HPM_P1;HPM_P2
2023/12/23 00:00:03;;;;;;;0.00;0.00;;;2.00;99.90;;;;;;5001335;28;20091;-68
2023/12/23 00:02:29;;;;;;;0.00;0.00;;;2.10;99.90;;;;;;5004981;28;20030;-68
2023/12/23 00:04:54;;;;;;;0.00;0.00;;;2.10;99.90;;;;;;5003611;28;20053;-67
2023/12/23 00:07:20;;;;;;;0.15;0.00;;;2.10;99.90;;;;;;5002886;28;20415;-68
2023/12/23 00:09:45;;;;;;;0.45;0.00;;;2.10;99.90;;;;;;5002869;28;20029;-68
2023/12/23 00:12:11;;;;;;;0.00;0.00;;;2.00;99.90;;;;;;5004658;28;20030;-68
2023/12/23 00:14:37;;;;;;;0.22;0.10;;;2.00;99.90;;;;;;4993536;28;20021;-68
2023/12/23 00:17:03;;;;;;;0.00;0.00;;;2.00;99.90;;;;;;5005364;28;20513;-76
2023/12/23 00:19:28;;;;;;;0.00;0.00;;;2.00;99.90;;;;;;5008767;28;20669;-75
2023/12/23 00:21:57;;;;;;;0.00;0.00;;;2.00;99.90;;;;;;5008139;28;20029;-76
2023/12/23 00:24:26;;;;;;;1.92;0.00;;;2.00;99.90;;;;;;4993272;28;20026;-73
2023/12/23 00:26:53;;;;;;;0.00;0.00;;;2.00;99.90;;;;;;4993111;28;20045;-74
2023/12/23 00:29:18;;;;;;;0.00;0.00;;;2.10;99.90;;;;;;5005423;28;20797;-76
2023/12/23 00:31:44;;;;;;;0.30;0.00;;;2.10;99.90;;;;;;5009899;28;20026;-74
2023/12/23 00:34:09;;;;;;;0.38;0.05;;;2.00;99.90;;;;;;5008416;28;20184;-74
2023/12/23 00:36:35;;;;;;;0.00;0.00;;;2.00;99.90;;;;;;4997159;28;20499;-75
2023/12/23 00:39:00;;;;;;;0.00;0.00;;;1.90;99.90;;;;;;4991913;28;20030;-75
2023/12/23 00:41:26;;;;;;;0.00;0.00;;;2.00;99.90;;;;;;4986272;28;20060;-73
2023/12/23 00:43:52;;;;;;;0.10;0.00;;;2.00;99.90;;;;;;4991435;28;20718;-75
2023/12/23 00:46:18;;;;;;;0.00;0.00;;;2.00;99.90;;;;;;4990429;28;20041;-75
2023/12/23 00:48:43;;;;;;;0.00;0.00;;;2.00;99.90;;;;;;4993997;28;20033;-75
2023/12/23 00:51:09;;;;;;;0.00;0.00;;;2.00;99.90;;;;;;4991821;28;20092;-75
2023/12/23 00:53:34;;;;;;;0.00;0.00;;;2.00;99.90;;;;;;4995444;28;20030;-68
2023/12/23 00:56:00;;;;;;;0.00;0.00;;;2.00;99.90;;;;;;4991325;28;20046;-67
2023/12/23 00:58:26;;;;;;;0.10;0.00;;;1.90;99.90;;;;;;4994965;28;20033;-67
2023/12/23 01:00:52;;;;;;;0.00;0.00;;;1.90;99.90;;;;;;4994115;28;20463;-68
2023/12/23 01:03:17;;;;;;;0.00;0.00;;;2.00;99.90;;;;;;4988843;28;20513;-68
2023/12/23 01:05:43;;;;;;;0.00;0.00;;;2.00;99.90;;;;;;4993485;28;20037;-69
2023/12/23 01:08:08;;;;;;;0.00;0.00;;;2.00;99.90;;;;;;4991964;28;20488;-68
2023/12/23 01:10:34;;;;;;;0.00;0.00;;;1.90;99.90;;;;;;4979238;28;20030;-68
2023/12/23 01:13:00;;;;;;;0.05;0.00;;;1.90;99.90;;;;;;4975819;28;20019;-68
2023/12/23 01:15:26;;;;;;;0.00;0.00;;;1.90;99.90;;;;;;4994620;28;20128;-67
2023/12/23 01:17:51;;;;;;;0.00;0.00;;;1.90;99.90;;;;;;4992999;28;20415;-68
2023/12/23 01:20:17;;;;;;;0.00;0.00;;;1.90;99.90;;;;;;4987989;28;20104;-68
2023/12/23 01:22:42;;;;;;;0.10;0.00;;;2.00;99.90;;;;;;4989476;28;20068;-68
2023/12/23 01:25:08;;;;;;;0.00;0.00;;;1.90;99.90;;;;;;4989150;28;20601;-68
2023/12/23 01:27:34;;;;;;;0.10;0.00;;;2.00;99.90;;;;;;4982724;28;20034;-68
2023/12/23 01:29:59;;;;;;;0.08;0.00;;;1.90;99.90;;;;;;4993079;28;20466;-68
2023/12/23 01:32:25;;;;;;;0.00;0.00;;;1.90;99.90;;;;;;4988537;28;20113;-68
2023/12/23 01:34:50;;;;;;;0.45;0.08;;;1.90;99.90;;;;;;4988087;28;20065;-67
2023/12/23 01:37:16;;;;;;;0.00;0.00;;;1.90;99.90;;;;;;5002834;28;20064;-68
2023/12/23 01:39:41;;;;;;;0.00;0.00;;;1.90;99.90;;;;;;5011493;28;20488;-68
2023/12/23 01:42:07;;;;;;;0.00;0.00;;;1.80;99.90;;;;;;5006569;28;20093;-67
2023/12/23 01:44:33;;;;;;;0.00;0.00;;;1.80;99.90;;;;;;5006646;28;20105;-68
2023/12/23 01:47:00;;;;;;;0.00;0.00;;;1.80;99.90;;;;;;4996616;28;20127;-75
2023/12/23 01:49:29;;;;;;;0.00;0.00;;;1.80;99.90;;;;;;5009505;28;20116;-76
2023/12/23 01:51:55;;;;;;;0.00;0.00;;;1.80;99.90;;;;;;5004424;28;20060;-75
2023/12/23 01:54:22;;;;;;;0.00;0.00;;;1.80;99.90;;;;;;5012220;28;20072;-77
2023/12/23 01:56:48;;;;;;;0.00;0.00;;;1.80;99.90;;;;;;5006528;28;20498;-76
2023/12/23 01:59:15;;;;;;;0.00;0.00;;;1.80;99.90;;;;;;5007830;28;20590;-75
2023/12/23 02:01:42;;;;;;;0.10;0.00;;;1.80;99.90;;;;;;5006003;28;20044;-76
2023/12/23 02:04:08;;;;;;;0.00;0.00;;;1.80;99.90;;;;;;5008635;28;20142;-76
2023/12/23 02:06:34;;;;;;;0.00;0.00;;;1.80;99.90;;;;;;5004264;28;20041;-77
2023/12/23 02:09:01;;;;;;;0.00;0.00;;;1.80;99.90;;;;;;5009120;28;20030;-77
2023/12/23 02:11:32;;;;;;;0.00;0.00;;;1.80;99.90;;;;;;5008930;28;20065;-77
2023/12/23 02:14:12;;;;;;;0.00;0.00;;;1.80;99.90;;;;;;5006413;28;20362;-77
2023/12/23 02:16:38;;;;;;;0.00;0.00;;;1.80;99.90;;;;;;5006046;28;20095;-77
2023/12/23 02:19:04;;;;;;;0.00;0.00;;;1.80;99.90;;;;;;5008822;28;20033;-76
2023/12/23 02:21:29;;;;;;;0.13;0.00;;;1.70;99.90;;;;;;5009414;28;20037;-76
2023/12/23 02:23:55;;;;;;;0.00;0.00;;;1.70;99.90;;;;;;5007911;28;20105;-77
2023/12/23 02:26:25;;;;;;;0.03;0.00;;;1.80;99.90;;;;;;5008104;28;20336;-77
2023/12/23 02:28:52;;;;;;;0.00;0.00;;;1.80;99.90;;;;;;5003922;28;20434;-76
2023/12/23 02:31:19;;;;;;;0.00;0.00;;;1.70;99.90;;;;;;5004481;28;20029;-74
2023/12/23 02:33:47;;;;;;;0.32;0.00;;;1.70;99.90;;;;;;5004170;28;20037;-77
2023/12/23 02:36:13;;;;;;;0.00;0.00;;;1.80;99.90;;;;;;5006506;28;20045;-76
2023/12/23 02:38:39;;;;;;;0.00;0.00;;;1.80;99.90;;;;;;5006281;28;20553;-79
2023/12/23 02:41:04;;;;;;;0.00;0.00;;;1.80;99.90;;;;;;5001728;28;20109;-78
2023/12/23 02:43:30;;;;;;;0.00;0.00;;;1.80;99.90;;;;;;5005402;28;20113;-77
2023/12/23 02:45:56;;;;;;;0.00;0.00;;;1.80;99.90;;;;;;5002786;28;20032;-79
2023/12/23 02:48:21;;;;;;;0.00;0.00;;;1.80;99.90;;;;;;5003816;28;20029;-78
2023/12/23 02:50:47;;;;;;;0.10;0.00;;;1.90;99.90;;;;;;5003510;28;20033;-77
2023/12/23 02:53:12;;;;;;;0.20;0.10;;;1.90;99.90;;;;;;4988849;28;20033;-79
2023/12/23 02:55:38;;;;;;;0.00;0.00;;;1.90;99.90;;;;;;4991724;28;20504;-77
2023/12/23 02:58:04;;;;;;;0.00;0.00;;;1.90;99.90;;;;;;4987540;28;20029;-77
2023/12/23 03:00:30;;;;;;;0.28;0.10;;;2.00;99.90;;;;;;5001722;28;20022;-76
2023/12/23 03:02:57;;;;;;;0.00;0.00;;;2.00;99.90;;;;;;5008896;28;20596;-76
2023/12/23 03:05:22;;;;;;;0.00;0.00;;;2.00;99.90;;;;;;5010428;28;20084;-76
2023/12/23 03:07:48;;;;;;;0.10;0.00;;;2.10;99.90;;;;;;5010401;28;20112;-77
2023/12/23 03:10:13;;;;;;;0.00;0.00;;;2.10;99.90;;;;;;5012474;28;20083;-77
2023/12/23 03:12:39;;;;;;;0.13;0.00;;;2.10;99.90;;;;;;5010818;28;20465;-75
2023/12/23 03:15:05;;;;;;;0.00;0.00;;;2.10;99.90;;;;;;5007064;28;20112;-76
2023/12/23 03:17:30;;;;;;;0.00;0.00;;;2.00;99.90;;;;;;5005647;28;20045;-75
2023/12/23 03:19:56;;;;;;;0.00;0.00;;;2.00;99.90;;;;;;5005133;28;20032;-75
2023/12/23 03:22:22;;;;;;;0.10;0.00;;;2.00;99.90;;;;;;5002775;28;20041;-76
2023/12/23 03:24:47;;;;;;;0.00;0.00;;;2.00;99.90;;;;;;5005592;28;20514;-75
2023/12/23 03:27:13;;;;;;;0.00;0.00;;;1.90;99.90;;;;;;5004906;28;20108;-76
2023/12/23 03:29:39;;;;;;;0.35;0.00;;;1.90;99.90;;;;;;5006642;28;20033;-76
2023/12/23 03:32:05;;;;;;;0.00;0.00;;;1.90;99.90;;;;;;5001634;28;20034;-76
2023/12/23 03:34:30;;;;;;;0.08;0.00;;;1.90;99.90;;;;;;5004929;28;20120;-75
2023/12/23 03:36:56;;;;;;;0.00;0.00;;;1.90;99.90;;;;;;4998793;28;20053;-76
2023/12/23 03:39:21;;;;;;;0.00;0.00;;;1.90;99.90;;;;;;5007331;28;20433;-67
2023/12/23 03:41:47;;;;;;;1.23;0.00;;;2.00;99.90;;;;;;5005257;28;20034;-67
2023/12/23 03:44:12;;;;;;;0.00;0.00;;;2.00;99.90;;;;;;5003515;28;20611;-67
2023/12/23 03:46:38;;;;;;;0.00;0.00;;;2.00;99.90;;;;;;4988815;28;20105;-67
2023/12/23 03:49:04;;;;;;;0.00;0.00;;;2.00;99.90;;;;;;5003487;28;20143;-68
2023/12/23 03:51:29;;;;;;;0.00;0.00;;;2.00;99.90;;;;;;5002798;28;20383;-67
2023/12/23 03:53:55;;;;;;;0.00;0.00;;;2.00;99.90;;;;;;5003140;28;20137;-67
2023/12/23 03:56:21;;;;;;;0.00;0.00;;;2.00;99.90;;;;;;5005257;28;20049;-68
2023/12/23 03:58:46;;;;;;;0.03;0.00;;;2.00;99.90;;;;;;5000911;28;20069;-67
2023/12/23 04:01:15;;;;;;;0.00;0.00;;;2.00;99.90;;;;;;5000894;28;20625;-67
2023/12/23 04:03:41;;;;;;;0.00;0.00;;;2.00;99.90;;;;;;5004261;28;20053;-68
2023/12/23 04:06:06;;;;;;;0.00;0.00;;;2.00;99.90;;;;;;4982409;28;20045;-67
2023/12/23 04:08:32;;;;;;;0.00;0.00;;;2.00;99.90;;;;;;5002538;28;20099;-67
2023/12/23 04:10:59;;;;;;;0.00;0.00;;;2.00;99.90;;;;;;5005318;28;20056;-67
2023/12/23 04:13:25;;;;;;;0.00;0.00;;;2.00;99.90;;;;;;5006202;28;20021;-77
2023/12/23 04:15:50;;;;;;;0.10;0.08;;;2.00;99.90;;;;;;5007092;28;20037;-67
2023/12/23 04:18:16;;;;;;;0.08;0.00;;;2.00;99.90;;;;;;5009516;28;20045;-66
2023/12/23 04:20:41;;;;;;;0.00;0.00;;;2.00;99.90;;;;;;5006364;28;20661;-66
2023/12/23 04:23:07;;;;;;;0.05;0.05;;;2.00;99.90;;;;;;4994063;28;20037;-66
2023/12/23 04:25:33;;;;;;;0.00;0.00;;;2.10;99.90;;;;;;5007912;28;20497;-66
2023/12/23 04:27:59;;;;;;;0.17;0.00;;;2.10;99.90;;;;;;4991411;28;20034;-65
2023/12/23 04:30:24;;;;;;;0.32;0.20;;;2.10;99.90;;;;;;5007322;28;20250;-66
2023/12/23 04:32:50;;;;;;;0.00;0.00;;;2.10;99.90;;;;;;5004630;28;20072;-66
2023/12/23 04:35:15;;;;;;;0.00;0.00;;;2.20;99.90;;;;;;5008569;28;20038;-68
2023/12/23 04:37:41;;;;;;;0.03;0.00;;;2.20;99.90;;;;;;5007220;28;20084;-66
2023/12/23 04:40:08;;;;;;;0.32;0.00;;;2.20;99.90;;;;;;5009275;28;20076;-67
2023/12/23 04:42:34;;;;;;;0.00;0.00;;;2.20;99.90;;;;;;5002861;28;20167;-67
2023/12/23 04:44:59;;;;;;;0.00;0.00;;;2.20;99.90;;;;;;4989578;28;20029;-65
2023/12/23 04:47:25;;;;;;;0.40;0.00;;;2.20;99.90;;;;;;5012681;28;20038;-68
2023/12/23 04:49:51;;;;;;;0.35;0.10;;;2.30;99.90;;;;;;5013327;28;20045;-68
2023/12/23 04:52:16;;;;;;;0.00;0.00;;;2.30;99.90;;;;;;5009848;28;20061;-66
2023/12/23 04:54:42;;;;;;;0.30;0.05;;;2.30;99.90;;;;;;5011190;28;20431;-66
2023/12/23 04:57:07;;;;;;;0.00;0.00;;;2.30;99.90;;;;;;5009226;28;20103;-65
2023/12/23 04:59:33;;;;;;;0.10;0.10;;;2.30;99.90;;;;;;5012542;28;20562;-69
2023/12/23 05:01:58;;;;;;;1.40;0.00;;;2.30;99.90;;;;;;5012270;28;20042;-67
2023/12/23 05:04:24;;;;;;;0.10;0.00;;;2.40;99.90;;;;;;5014348;28;20022;-65
2023/12/23 05:06:50;;;;;;;1.30;0.28;;;2.40;99.90;;;;;;4992796;28;20842;-70
2023/12/23 05:09:16;;;;;;;0.10;0.10;;;2.40;99.90;;;;;;4998349;28;20038;-67
2023/12/23 05:11:42;;;;;;;0.10;0.10;;;2.40;99.90;;;;;;5014123;28;20104;-67
2023/12/23 05:14:07;;;;;;;0.08;0.00;;;2.40;99.90;;;;;;5008439;28;20109;-66
2023/12/23 05:16:33;;;;;;;0.00;0.00;;;2.40;99.90;;;;;;5014598;28;20410;-66
2023/12/23 05:18:58;;;;;;;0.05;0.05;;;2.40;99.90;;;;;;5015477;28;20517;-68
2023/12/23 05:21:24;;;;;;;0.30;0.10;;;2.40;99.90;;;;;;5012936;28;20030;-70
2023/12/23 05:23:50;;;;;;;0.10;0.10;;;2.40;99.90;;;;;;4995696;28;20615;-67
2023/12/23 05:26:20;;;;;;;0.00;0.00;;;2.40;99.90;;;;;;5010466;28;20075;-66
2023/12/23 05:28:46;;;;;;;1.65;0.20;;;2.50;99.90;;;;;;5012200;28;20102;-72
2023/12/23 05:31:11;;;;;;;0.90;0.10;;;2.40;99.90;;;;;;5010389;28;20044;-71
2023/12/23 05:33:37;;;;;;;0.10;0.10;;;2.40;99.90;;;;;;5015343;28;20033;-72
2023/12/23 05:36:02;;;;;;;1.00;0.10;;;2.40;99.90;;;;;;5013624;28;20983;-70
2023/12/23 05:38:28;;;;;;;0.00;0.00;;;2.30;99.90;;;;;;5012769;28;20034;-71
2023/12/23 05:40:55;;;;;;;0.20;0.10;;;2.40;99.90;;;;;;5013551;28;20037;-75
2023/12/23 05:43:21;;;;;;;0.43;0.05;;;2.30;99.90;;;;;;5014045;28;20084;-77
2023/12/23 05:45:47;;;;;;;0.00;0.00;;;2.40;99.90;;;;;;5010066;28;20033;-75
2023/12/23 05:48:13;;;;;;;0.00;0.00;;;2.40;99.90;;;;;;5014264;28;20073;-75
2023/12/23 05:50:38;;;;;;;1.02;0.25;;;2.30;99.90;;;;;;5013388;28;24316;-75
2023/12/23 05:53:04;;;;;;;1.02;1.00;;;2.20;99.90;;;;;;5008211;28;20410;-70
2023/12/23 05:55:30;;;;;;;0.20;0.10;;;2.20;99.90;;;;;;5012548;28;20082;-73
2023/12/23 05:57:55;;;;;;;0.00;0.00;;;2.30;99.90;;;;;;5009779;28;20072;-75
2023/12/23 06:00:21;;;;;;;0.20;0.15;;;2.30;99.90;;;;;;5008935;28;20025;-71
2023/12/23 06:02:47;;;;;;;0.80;0.20;;;2.30;99.90;;;;;;5009347;28;20030;-74
2023/12/23 06:05:12;;;;;;;0.20;0.10;;;2.30;99.90;;;;;;5012255;28;20033;-71
2023/12/23 06:07:38;;;;;;;2.03;0.20;;;2.40;99.90;;;;;;5004311;28;20049;-71
2023/12/23 06:10:05;;;;;;;0.00;0.00;;;2.40;99.90;;;;;;5008950;28;20099;-69
2023/12/23 06:12:31;;;;;;;0.15;0.10;;;2.40;99.90;;;;;;5010513;28;20024;-72
2023/12/23 06:14:57;;;;;;;0.45;0.10;;;2.50;99.90;;;;;;5002136;28;20030;-72
2023/12/23 06:17:23;;;;;;;0.13;0.10;;;2.60;99.90;;;;;;5010561;28;20754;-76
2023/12/23 06:19:49;;;;;;;0.00;0.00;;;2.60;99.90;;;;;;5010528;28;20048;-70
2023/12/23 06:22:15;;;;;;;0.20;0.20;;;2.60;99.90;;;;;;5009559;28;20033;-70
2023/12/23 06:24:40;;;;;;;1.45;0.10;;;2.70;99.90;;;;;;5009906;28;20017;-67
2023/12/23 06:27:06;;;;;;;0.10;0.10;;;2.70;99.90;;;;;;5009157;28;20044;-66
2023/12/23 06:29:32;;;;;;;1.08;0.20;;;2.80;99.90;;;;;;5010887;28;20029;-66
2023/12/23 06:31:59;;;;;;;3.38;1.40;;;2.70;99.90;;;;;;4991308;28;20327;-66
2023/12/23 06:34:25;;;;;;;0.50;0.10;;;2.80;99.90;;;;;;5011815;28;20155;-66
2023/12/23 06:36:51;;;;;;;0.68;0.40;;;2.80;99.90;;;;;;5010848;28;20053;-65
2023/12/23 06:39:16;;;;;;;0.30;0.08;;;2.80;99.90;;;;;;5003345;28;20163;-65
2023/12/23 06:41:42;;;;;;;0.10;0.10;;;2.80;99.90;;;;;;5010400;28;20033;-64
2023/12/23 06:44:07;;;;;;;0.15;0.15;;;2.80;99.90;;;;;;5010885;28;20133;-67
2023/12/23 06:46:33;;;;;;;0.38;0.10;;;2.80;99.90;;;;;;5011586;28;20033;-66
2023/12/23 06:48:58;;;;;;;0.08;0.08;;;2.80;99.90;;;;;;5014380;28;20029;-66
2023/12/23 06:51:24;;;;;;;0.00;0.00;;;2.80;99.90;;;;;;5007126;28;20117;-70
2023/12/23 06:53:50;;;;;;;0.10;0.00;;;2.80;99.90;;;;;;5012888;28;20033;-68
2023/12/23 06:56:16;;;;;;;0.20;0.10;;;2.70;99.90;;;;;;5008076;28;20032;-67
2023/12/23 06:58:42;;;;;;;0.13;0.10;;;2.70;99.90;;;;;;5011188;28;20038;-65
2023/12/23 07:01:08;;;;;;;0.00;0.00;;;2.60;99.90;;;;;;5009084;28;20733;-70
2023/12/23 07:03:34;;;;;;;0.15;0.10;;;2.60;99.90;;;;;;5010908;28;20112;-72
2023/12/23 07:05:59;;;;;;;0.08;0.05;;;2.60;99.90;;;;;;5007835;28;20490;-73
2023/12/23 07:08:25;;;;;;;0.10;0.10;;;2.60;99.90;;;;;;5010262;28;20033;-74
2023/12/23 07:10:51;;;;;;;1.45;0.10;;;2.60;99.90;;;;;;5006182;28;20101;-70
2023/12/23 07:13:17;;;;;;;0.15;0.15;;;2.60;99.90;;;;;;4993094;28;20376;-70
2023/12/23 07:15:42;;;;;;;0.17;0.17;;;2.60;99.90;;;;;;5007411;28;20479;-70
2023/12/23 07:18:09;;;;;;;0.43;0.20;;;2.60;99.90;;;;;;4997984;28;20064;-71
2023/12/23 07:20:34;;;;;;;0.08;0.00;;;2.60;99.90;;;;;;5011912;28;20837;-66
2023/12/23 07:23:00;;;;;;;0.38;0.00;;;2.60;99.90;;;;;;5004628;28;20033;-68
2023/12/23 07:25:26;;;;;;;0.60;0.10;;;2.60;99.90;;;;;;4989806;28;20034;-66
2023/12/23 07:27:51;;;;;;;0.00;0.00;;;2.60;99.90;;;;;;5007339;28;20368;-66
2023/12/23 07:30:17;;;;;;;0.00;0.00;;;2.60;99.90;;;;;;5004083;28;20064;-66
2023/12/23 07:32:42;;;;;;;0.63;0.05;;;2.60;99.90;;;;;;5011266;28;20095;-67
2023/12/23 07:35:08;;;;;;;0.00;0.00;;;2.70;99.90;;;;;;5011516;28;20244;-66
2023/12/23 07:37:34;;;;;;;0.63;0.10;;;2.60;99.90;;;;;;5007987;28;20138;-67
2023/12/23 07:39:59;;;;;;;0.03;0.03;;;2.70;99.90;;;;;;5005394;28;20053;-69
2023/12/23 07:42:25;;;;;;;1.83;1.13;;;2.70;99.90;;;;;;4991647;28;20038;-70
2023/12/23 07:44:50;;;;;;;2.15;1.95;;;2.70;99.90;;;;;;5011777;28;20104;-66
2023/12/23 07:47:17;;;;;;;0.50;0.10;;;2.70;99.90;;;;;;4988740;28;20040;-66
2023/12/23 07:49:42;;;;;;;1.05;0.15;;;2.80;99.90;;;;;;5010390;28;20264;-67
2023/12/23 07:52:08;;;;;;;0.10;0.10;;;2.80;99.90;;;;;;5010957;28;20032;-66
2023/12/23 07:54:34;;;;;;;0.65;0.20;;;2.80;99.90;;;;;;5009070;28;20080;-65
2023/12/23 07:56:59;;;;;;;1.13;0.20;;;2.80;99.90;;;;;;5009856;28;20072;-66
2023/12/23 07:59:25;;;;;;;0.00;0.00;;;2.80;99.90;;;;;;5007726;28;20030;-66
2023/12/23 08:01:51;;;;;;;0.52;0.20;;;2.80;99.90;;;;;;5001890;28;20041;-66
2023/12/23 08:04:16;;;;;;;0.75;0.10;;;2.80;99.90;;;;;;5015097;28;20025;-66
2023/12/23 08:06:42;;;;;;;0.28;0.17;;;2.80;99.90;;;;;;5005659;28;20029;-67
2023/12/23 08:09:08;;;;;;;0.17;0.10;;;2.80;99.90;;;;;;5007113;28;20343;-67
2023/12/23 08:11:34;;;;;;;0.10;0.10;;;2.80;99.90;;;;;;4996249;28;20111;-67
2023/12/23 08:14:01;;;;;;;0.38;0.15;;;2.80;99.90;;;;;;5011235;28;20731;-72
2023/12/23 08:16:26;;;;;;;0.65;0.10;;;2.80;99.90;;;;;;5009656;28;20013;-67
2023/12/23 08:18:52;;;;;;;0.15;0.05;;;2.80;99.90;;;;;;5008398;28;20138;-66
2023/12/23 08:21:17;;;;;;;1.77;0.20;;;2.80;99.90;;;;;;5011158;28;20168;-66
2023/12/23 08:23:43;;;;;;;0.55;0.00;;;2.80;99.90;;;;;;5006836;28;20045;-68
2023/12/23 08:26:09;;;;;;;2.95;0.32;;;2.90;99.90;;;;;;5006333;28;20030;-68
2023/12/23 08:28:35;;;;;;;1.52;0.40;;;2.90;99.90;;;;;;5007038;28;20064;-66
2023/12/23 08:31:03;;;;;;;2.35;1.83;;;3.10;99.90;;;;;;5004718;28;20030;-75
2023/12/23 08:33:29;;;;;;;1.15;1.00;;;3.30;99.90;;;;;;5011772;28;20418;-74
2023/12/23 08:35:57;;;;;;;0.38;0.20;;;3.20;99.90;;;;;;5010752;28;20379;-73
2023/12/23 08:38:23;;;;;;;1.45;0.38;;;3.20;99.90;;;;;;5011422;28;20057;-73
2023/12/23 08:40:48;;;;;;;0.40;0.40;;;3.20;99.90;;;;;;5008223;28;20106;-73
2023/12/23 08:43:16;;;;;;;4.75;1.15;;;3.30;99.90;;;;;;5010508;28;20539;-73
2023/12/23 08:45:41;;;;;;;0.22;0.17;;;3.30;99.90;;;;;;5009071;28;20037;-73
2023/12/23 08:48:07;;;;;;;1.70;0.55;;;3.30;99.90;;;;;;5014815;28;20025;-72
2023/12/23 08:50:32;;;;;;;0.65;0.20;;;3.20;99.90;;;;;;5011422;28;20087;-72
2023/12/23 08:52:58;;;;;;;0.40;0.20;;;3.20;99.90;;;;;;5010600;28;20037;-67
2023/12/23 08:55:24;;;;;;;1.45;0.35;;;3.20;99.90;;;;;;5011624;28;20104;-66
2023/12/23 08:57:49;;;;;;;3.03;2.42;;;3.20;99.90;;;;;;5010695;28;20545;-66
2023/12/23 09:00:15;;;;;;;0.90;0.30;;;3.10;99.90;;;;;;5012627;28;20087;-67
2023/12/23 09:02:41;;;;;;;1.90;0.47;;;3.20;99.90;;;;;;5012778;28;20041;-67
2023/12/23 09:05:07;;;;;;;1.90;0.20;;;3.20;99.90;;;;;;5012905;28;20033;-67
2023/12/23 09:07:32;;;;;;;0.50;0.40;;;3.20;99.90;;;;;;5009772;28;20064;-68
2023/12/23 09:09:58;;;;;;;1.80;0.30;;;3.20;99.90;;;;;;5010276;28;20132;-67
2023/12/23 09:12:23;;;;;;;1.65;0.32;;;3.30;99.90;;;;;;5003630;28;20544;-66
2023/12/23 09:14:49;;;;;;;1.02;0.20;;;3.30;99.90;;;;;;5010494;28;20349;-67
2023/12/23 09:17:18;;;;;;;1.45;0.45;;;3.20;99.90;;;;;;5009123;28;20650;-67
2023/12/23 09:19:44;;;;;;;1.65;0.32;;;3.30;99.90;;;;;;5012943;28;20057;-68
2023/12/23 09:22:10;;;;;;;3.22;0.43;;;3.20;99.90;;;;;;5004011;28;20033;-68
2023/12/23 09:24:36;;;;;;;1.13;0.85;;;3.30;99.90;;;;;;5007873;28;20036;-68
2023/12/23 09:27:01;;;;;;;1.10;0.80;;;3.30;99.90;;;;;;5005379;28;20022;-68
2023/12/23 09:29:27;;;;;;;1.95;0.32;;;3.30;99.90;;;;;;4997076;28;20029;-67
2023/12/23 09:31:53;;;;;;;1.90;0.30;;;3.30;99.90;;;;;;4979680;28;20026;-68
2023/12/23 09:34:21;;;;;;;1.20;0.22;;;3.30;99.90;;;;;;4996671;28;20036;-68
2023/12/23 09:36:47;;;;;;;2.67;0.32;;;3.30;99.90;;;;;;4982394;28;20057;-68
2023/12/23 09:39:13;;;;;;;1.38;0.20;;;3.30;99.90;;;;;;4997949;28;20381;-67
2023/12/23 09:41:41;;;;;;;3.58;0.38;;;3.30;99.90;;;;;;5001556;28;20066;-67
2023/12/23 09:44:07;;;;;;;3.38;0.65;;;3.30;99.90;;;;;;5002516;28;20120;-68
2023/12/23 09:46:36;;;;;;;1.27;0.43;;;3.40;99.90;;;;;;5012203;28;20047;-68
2023/12/23 09:49:02;;;;;;;1.55;0.43;;;3.30;99.90;;;;;;5011957;28;20052;-68
2023/12/23 09:51:30;;;;;;;2.72;0.80;;;3.20;99.90;;;;;;4998414;28;20068;-76
2023/12/23 09:54:00;;;;;;;0.77;0.38;;;3.20;99.90;;;;;;5006907;28;20101;-68
2023/12/23 09:56:29;;;;;;;1.38;0.20;;;3.20;99.90;;;;;;5007827;28;20108;-67
2023/12/23 09:58:56;;;;;;;0.80;0.52;;;3.10;99.90;;;;;;5004161;28;20030;-67
2023/12/23 10:01:22;;;;;;;2.58;0.55;;;3.00;99.90;;;;;;5016709;28;20075;-67
2023/12/23 10:03:49;;;;;;;2.95;0.55;;;2.90;99.90;;;;;;5011640;28;20025;-67
2023/12/23 10:06:16;;;;;;;0.98;0.20;;;2.90;99.90;;;;;;5008939;28;20458;-70
2023/12/23 10:08:45;;;;;;;0.47;0.30;;;2.80;99.90;;;;;;5010466;28;20045;-70
2023/12/23 10:11:10;;;;;;;0.98;0.38;;;2.80;99.90;;;;;;5012274;28;20029;-70
2023/12/23 10:13:36;;;;;;;1.35;0.50;;;2.80;99.90;;;;;;5014543;28;20071;-70
2023/12/23 10:16:03;;;;;;;0.85;0.47;;;2.80;99.90;;;;;;5011516;28;20040;-71
2023/12/23 10:18:30;;;;;;;2.95;0.40;;;2.80;99.90;;;;;;5016534;28;20437;-71
2023/12/23 10:20:57;;;;;;;1.20;0.10;;;2.80;99.90;;;;;;5012585;28;20033;-70
2023/12/23 10:23:23;;;;;;;0.85;0.40;;;2.80;99.90;;;;;;5010695;28;20037;-70
2023/12/23 10:25:51;;;;;;;1.10;0.50;;;2.80;99.90;;;;;;5011441;28;20159;-70
2023/12/23 10:28:19;;;;;;;3.53;0.32;;;2.80;99.90;;;;;;5016516;28;20030;-70
2023/12/23 10:30:50;;;;;;;1.98;0.35;;;2.80;99.90;;;;;;5014393;28;20034;-70
2023/12/23 10:33:17;;;;;;;0.63;0.35;;;2.70;99.90;;;;;;5018580;28;20029;-70
2023/12/23 10:35:48;;;;;;;2.05;0.38;;;2.70;99.90;;;;;;5013750;28;20167;-71
2023/12/23 10:38:22;;;;;;;0.65;0.40;;;2.70;99.90;;;;;;5014726;28;20155;-70
2023/12/23 10:41:17;;;;;;;2.33;0.43;;;2.70;99.90;;;;;;5016011;28;20037;-72
2023/12/23 10:43:44;;;;;;;2.03;0.40;;;2.70;99.90;;;;;;4989265;28;20082;-71
2023/12/23 10:46:11;;;;;;;2.67;0.70;;;2.70;99.90;;;;;;5010034;28;20037;-70
2023/12/23 10:48:39;;;;;;;0.90;0.60;;;2.70;99.90;;;;;;5004245;28;20030;-69
2023/12/23 10:51:05;;;;;;;1.27;0.60;;;2.60;99.90;;;;;;5014641;28;20129;-71
2023/12/23 10:53:31;;;;;;;1.17;0.50;;;2.60;99.90;;;;;;5012298;28;20041;-71
2023/12/23 10:55:57;;;;;;;1.80;0.82;;;2.60;99.90;;;;;;5007818;28;20123;-71
2023/12/23 10:58:24;;;;;;;1.88;0.50;;;2.60;99.90;;;;;;5015179;28;20045;-71
2023/12/23 11:00:53;;;;;;;2.63;0.60;;;2.60;99.90;;;;;;5015114;28;20025;-71
2023/12/23 11:03:19;;;;;;;0.82;0.30;;;2.50;99.90;;;;;;4999740;28;20059;-72
2023/12/23 11:05:47;;;;;;;2.63;0.98;;;2.50;99.90;;;;;;5013426;28;20501;-72
2023/12/23 11:08:18;;;;;;;2.97;0.77;;;2.40;99.90;;;;;;5011117;28;20117;-72
2023/12/23 11:10:45;;;;;;;3.13;0.57;;;2.40;99.90;;;;;;5013816;28;20096;-72
2023/12/23 11:13:10;;;;;;;1.73;0.80;;;2.40;99.90;;;;;;5016529;28;20040;-72
2023/12/23 11:15:38;;;;;;;1.10;0.60;;;2.50;99.90;;;;;;5016057;28;20029;-72
2023/12/23 11:18:04;;;;;;;5.28;1.95;;;2.50;99.90;;;;;;5010350;28;20128;-68
2023/12/23 11:20:35;;;;;;;1.90;0.60;;;2.40;99.90;;;;;;5016594;28;20792;-68
2023/12/23 11:23:32;;;;;;;3.45;0.88;;;2.40;99.90;;;;;;5017561;28;20632;-67
2023/12/23 11:25:59;;;;;;;3.28;0.70;;;2.40;99.90;;;;;;4994471;28;20038;-68
2023/12/23 11:28:26;;;;;;;4.38;0.85;;;2.40;99.90;;;;;;4994215;28;20120;-66
2023/12/23 11:30:59;;;;;;;3.78;0.90;;;2.40;99.90;;;;;;5014957;28;20021;-68
2023/12/23 11:33:31;;;;;;;4.35;0.90;;;2.30;99.90;;;;;;5015548;28;20472;-68
2023/12/23 11:35:58;;;;;;;1.92;0.93;;;2.30;99.90;;;;;;5008795;28;20449;-68
2023/12/23 11:38:28;;;;;;;1.15;0.70;;;2.30;99.90;;;;;;4988258;28;20103;-68
2023/12/23 11:40:53;;;;;;;3.25;0.70;;;2.30;99.90;;;;;;4990354;28;20708;-68
2023/12/23 11:43:19;;;;;;;2.25;0.75;;;2.20;99.90;;;;;;4993629;28;20025;-68
2023/12/23 11:45:46;;;;;;;2.72;0.60;;;2.20;99.90;;;;;;4989430;28;20379;-68
2023/12/23 11:48:14;;;;;;;4.00;0.80;;;2.20;99.90;;;;;;4991607;28;20084;-69
2023/12/23 11:50:40;;;;;;;1.30;0.50;;;2.10;99.90;;;;;;4987246;28;20517;-68
2023/12/23 11:53:06;;;;;;;2.17;0.70;;;2.10;99.90;;;;;;4993425;28;20081;-68
2023/12/23 11:55:32;;;;;;;2.03;0.55;;;2.10;99.90;;;;;;4989403;28;20041;-69
2023/12/23 11:57:58;;;;;;;3.08;0.60;;;1.90;99.90;;;;;;4985816;28;20054;-68
2023/12/23 12:00:23;;;;;;;3.65;0.80;;;1.80;99.90;;;;;;4988139;28;20028;-69
2023/12/23 12:02:49;;;;;;;1.90;0.60;;;1.80;99.90;;;;;;4981906;28;20096;-68
2023/12/23 12:05:14;;;;;;;2.80;0.75;;;1.80;99.90;;;;;;4992785;28;20073;-69
2023/12/23 12:07:41;;;;;;;2.72;0.70;;;1.80;99.90;;;;;;4987420;28;20111;-68
2023/12/23 12:10:07;;;;;;;1.58;0.47;;;1.70;99.90;;;;;;4993073;28;20022;-68
2023/12/23 12:12:32;;;;;;;1.88;0.40;;;1.60;99.90;;;;;;4990604;28;20066;-68
2023/12/23 12:14:58;;;;;;;2.05;0.50;;;1.60;99.90;;;;;;4993027;28;20156;-71
2023/12/23 12:17:24;;;;;;;0.82;0.40;;;1.60;99.90;;;;;;4983285;28;20068;-77
2023/12/23 12:19:50;;;;;;;1.65;0.20;;;1.50;99.90;;;;;;4990885;28;20217;-75
2023/12/23 12:22:16;;;;;;;0.60;0.17;;;1.50;99.90;;;;;;4991583;28;20633;-75
2023/12/23 12:24:42;;;;;;;1.77;0.30;;;1.40;99.90;;;;;;4989832;28;20045;-73
2023/12/23 12:27:08;;;;;;;1.20;0.45;;;1.40;99.90;;;;;;4987623;28;20022;-72
2023/12/23 12:29:34;;;;;;;0.10;0.10;;;1.40;99.90;;;;;;4983947;28;20034;-73
2023/12/23 12:31:59;;;;;;;0.40;0.20;;;1.40;99.90;;;;;;4984390;28;20030;-73
2023/12/23 12:34:27;;;;;;;0.63;0.20;;;1.40;99.90;;;;;;4981457;28;21063;-72
2023/12/23 12:36:53;;;;;;;0.17;0.10;;;1.40;99.90;;;;;;4995424;28;20164;-73
2023/12/23 12:39:19;;;;;;;0.25;0.10;;;1.40;99.90;;;;;;5012298;28;20025;-68
2023/12/23 12:41:49;;;;;;;1.38;0.13;;;1.40;99.90;;;;;;5006385;28;20034;-73
2023/12/23 12:44:16;;;;;;;0.00;0.00;;;1.40;99.90;;;;;;5001656;28;20410;-73
2023/12/23 12:46:42;;;;;;;0.00;0.00;;;1.40;99.90;;;;;;5004181;28;20033;-76
2023/12/23 12:49:08;;;;;;;0.35;0.10;;;1.40;99.90;;;;;;5014749;28;20756;-75
2023/12/23 12:51:35;;;;;;;1.65;0.20;;;1.30;99.90;;;;;;5014940;28;20042;-75